Terminal Aerodrome Forecast
Issued by NWS

Home | Current Version | Previous Version | Text Only | Print | Product List | Glossary On
Versions: 1 2 3 4 5 6 7 8 9 10 11 12 13 14 15 16 17 18 19
000
FTAK31 PAJN 110853 AAA
TAFASI
TAF AMD
PASI 110853Z 1109/1206 12010KT P6SM -SHRA FEW025 BKN040 OVC050
      WS020/17030KT
      TEMPO 1110/1113 -TSRA BKN030CB OVC050
     FM111300 11012KT P6SM -SHRA SCT010 BKN025 BKN050 WS020/14025KT
     FM120100 09013G23KT P6SM VCSH BKN050 WS020/12030KT=

USA.gov is the U.S. government's official web portal to all federal, state and local government web resources and services.